createdAt,value
2018-09-08T00:01:40.669Z,101310.00
2018-09-08T00:04:10.374Z,101318.00
2018-09-08T00:06:39.194Z,101318.00
2018-09-08T00:09:09.497Z,101322.00
2018-09-08T00:11:38.711Z,101323.00
2018-09-08T00:14:07.542Z,101330.00
2018-09-08T00:16:41.669Z,101339.00
2018-09-08T00:19:16.267Z,101333.00
2018-09-08T00:21:50.878Z,101335.00
2018-09-08T00:24:24.966Z,101328.00
2018-09-08T00:26:52.994Z,101329.00
2018-09-08T00:29:25.153Z,101332.00
2018-09-08T00:31:54.243Z,101332.00
2018-09-08T00:34:23.058Z,101347.00
2018-09-08T00:36:51.859Z,101347.00
2018-09-08T00:39:21.086Z,101356.00
2018-09-08T00:41:49.876Z,101350.00
2018-09-08T00:44:18.665Z,101349.00
2018-09-08T00:46:47.502Z,101356.00
2018-09-08T00:49:16.339Z,101350.00
2018-09-08T00:51:45.231Z,101364.00
2018-09-08T00:54:14.084Z,101364.00
2018-09-08T00:56:42.903Z,101358.00
2018-09-08T00:59:11.698Z,101362.00
2018-09-08T01:01:40.974Z,101352.00
2018-09-08T01:04:09.779Z,101364.00
2018-09-08T01:06:38.562Z,101368.00
2018-09-08T01:09:08.518Z,101366.00
2018-09-08T01:11:37.322Z,101370.00
2018-09-08T01:14:06.187Z,101375.00
2018-09-08T01:16:34.993Z,101381.00
2018-09-08T01:19:03.807Z,101381.00
2018-09-08T01:21:32.834Z,101379.00
2018-09-08T01:24:02.562Z,101389.00
2018-09-08T01:26:31.359Z,101388.00
2018-09-08T01:29:00.142Z,101384.00
2018-09-08T01:31:28.959Z,101392.00
2018-09-08T01:33:57.746Z,101390.00
2018-09-08T01:36:26.542Z,101394.00
2018-09-08T01:38:55.392Z,101393.00
2018-09-08T01:41:24.193Z,101401.00
2018-09-08T01:43:52.981Z,101404.00
2018-09-08T01:46:22.189Z,101400.00
2018-09-08T01:48:50.973Z,101406.00
2018-09-08T01:51:19.803Z,101403.00
2018-09-08T01:53:48.597Z,101400.00
2018-09-08T01:56:17.385Z,101406.00
2018-09-08T01:58:46.181Z,101403.00
2018-09-08T02:01:15.020Z,101403.00
2018-09-08T02:03:43.823Z,101406.00
2018-09-08T02:06:12.666Z,101396.00
2018-09-08T02:08:41.607Z,101403.00
2018-09-08T02:11:10.520Z,101397.00
2018-09-08T02:13:39.326Z,101411.00
2018-09-08T02:16:08.137Z,101403.00
2018-09-08T02:18:36.944Z,101406.00
2018-09-08T02:21:05.932Z,101393.00
2018-09-08T02:23:34.738Z,101406.00
2018-09-08T02:26:10.808Z,101407.00
2018-09-08T02:28:40.039Z,101407.00
2018-09-08T02:31:08.847Z,101400.00
2018-09-08T02:33:37.670Z,101412.00
2018-09-08T02:36:06.477Z,101409.00
2018-09-08T02:38:35.316Z,101405.00
2018-09-08T02:41:04.178Z,101402.00
2018-09-08T02:43:33.035Z,101405.00
2018-09-08T02:46:01.847Z,101407.00
2018-09-08T02:48:30.646Z,101415.00
2018-09-08T02:50:58.573Z,101413.00
2018-09-08T02:53:26.059Z,101399.00
2018-09-08T02:55:53.569Z,101411.00
2018-09-08T02:58:21.156Z,101413.00
2018-09-08T03:00:48.654Z,101422.00
2018-09-08T03:03:16.154Z,101418.00
2018-09-08T03:05:43.662Z,101414.00
2018-09-08T03:08:11.166Z,101403.00
2018-09-08T03:10:38.682Z,101423.00
2018-09-08T03:13:06.693Z,101430.00
2018-09-08T03:15:34.205Z,101436.00
2018-09-08T03:18:01.694Z,101430.00
2018-09-08T03:20:29.212Z,101433.00
2018-09-08T03:22:56.717Z,101429.00
2018-09-08T03:25:24.219Z,101448.00
2018-09-08T03:27:51.890Z,101435.00
2018-09-08T03:30:19.418Z,101445.00
2018-09-08T03:32:46.938Z,101436.00
2018-09-08T03:35:14.741Z,101446.00
2018-09-08T03:37:42.247Z,101447.00
2018-09-08T03:40:09.823Z,101453.00
2018-09-08T03:42:37.361Z,101454.00
2018-09-08T03:45:06.149Z,101454.00
2018-09-08T03:47:33.665Z,101466.00
2018-09-08T03:50:01.205Z,101471.00
2018-09-08T03:52:28.745Z,101475.00
2018-09-08T03:54:56.248Z,101474.00
2018-09-08T03:57:24.130Z,101471.00
2018-09-08T03:59:51.642Z,101476.00
2018-09-08T04:02:19.151Z,101475.00
2018-09-08T04:04:47.969Z,101479.00
2018-09-08T04:07:16.769Z,101475.00
2018-09-08T04:09:45.618Z,101476.00
2018-09-08T04:12:14.443Z,101482.00
2018-09-08T04:14:43.234Z,101480.00
2018-09-08T04:17:12.035Z,101483.00
2018-09-08T04:19:41.165Z,101481.00
2018-09-08T04:22:09.977Z,101486.00
2018-09-08T04:24:38.773Z,101487.00
2018-09-08T04:27:07.594Z,101487.00
2018-09-08T04:29:36.861Z,101485.00
2018-09-08T04:32:05.769Z,101502.00
2018-09-08T04:34:34.573Z,101496.00
2018-09-08T04:37:03.371Z,101489.00
2018-09-08T04:39:32.163Z,101500.00
2018-09-08T04:42:01.166Z,101504.00
2018-09-08T04:44:29.950Z,101507.00
2018-09-08T04:46:58.779Z,101505.00
2018-09-08T04:49:27.599Z,101523.00
2018-09-08T04:51:56.438Z,101513.00
2018-09-08T04:54:25.234Z,101521.00
2018-09-08T04:56:54.030Z,101518.00
2018-09-08T04:59:22.838Z,101514.00
2018-09-08T05:01:51.691Z,101523.00
2018-09-08T05:04:20.734Z,101518.00
2018-09-08T05:06:49.541Z,101520.00
2018-09-08T05:09:18.390Z,101526.00
2018-09-08T05:11:47.189Z,101539.00
2018-09-08T05:14:16.010Z,101539.00
2018-09-08T05:16:44.891Z,101534.00
2018-09-08T05:19:13.686Z,101535.00
2018-09-08T05:21:42.499Z,101546.00
2018-09-08T05:24:11.327Z,101537.00
2018-09-08T05:26:40.273Z,101548.00
2018-09-08T05:29:09.057Z,101543.00
2018-09-08T05:31:38.265Z,101547.00
2018-09-08T05:34:08.087Z,101553.00
2018-09-08T05:36:36.884Z,101552.00
2018-09-08T05:39:06.964Z,101553.00
2018-09-08T05:41:35.942Z,101563.00
2018-09-08T05:44:04.754Z,101555.00
2018-09-08T05:46:33.597Z,101563.00
2018-09-08T05:49:02.569Z,101554.00
2018-09-08T05:51:31.365Z,101553.00
2018-09-08T05:54:00.161Z,101547.00
2018-09-08T05:56:29.005Z,101555.00
2018-09-08T05:58:57.823Z,101568.00
2018-09-08T06:01:26.639Z,101560.00
2018-09-08T06:03:55.550Z,101566.00
2018-09-08T06:06:24.360Z,101571.00
2018-09-08T06:08:53.214Z,101575.00
2018-09-08T06:11:22.478Z,101563.00
2018-09-08T06:13:51.291Z,101581.00
2018-09-08T06:16:20.090Z,101571.00
2018-09-08T06:18:55.748Z,101578.00
2018-09-08T06:21:24.586Z,101574.00
2018-09-08T06:23:53.693Z,101578.00
2018-09-08T06:26:22.551Z,101586.00
2018-09-08T06:28:51.493Z,101587.00
2018-09-08T06:31:20.287Z,101592.00
2018-09-08T06:33:50.280Z,101596.00
2018-09-08T06:36:19.081Z,101593.00
2018-09-08T06:38:47.921Z,101597.00
2018-09-08T06:41:17.928Z,101599.00
2018-09-08T06:43:46.743Z,101602.00
2018-09-08T06:46:15.544Z,101600.00
2018-09-08T06:48:44.374Z,101603.00
2018-09-08T06:51:13.208Z,101602.00
2018-09-08T06:53:41.986Z,101604.00
2018-09-08T06:56:10.921Z,101598.00
2018-09-08T06:58:39.706Z,101606.00
2018-09-08T07:01:08.549Z,101604.00
2018-09-08T07:03:37.434Z,101605.00
2018-09-08T07:06:06.267Z,101606.00
2018-09-08T07:08:35.051Z,101600.00
2018-09-08T07:11:03.977Z,101602.00
2018-09-08T07:13:32.799Z,101613.00
2018-09-08T07:16:01.589Z,101621.00
2018-09-08T07:18:30.827Z,101619.00
2018-09-08T07:20:59.678Z,101618.00
2018-09-08T07:23:28.571Z,101615.00
2018-09-08T07:25:57.395Z,101617.00
2018-09-08T07:28:26.192Z,101620.00
2018-09-08T07:30:55.124Z,101619.00
2018-09-08T07:33:23.953Z,101622.00
2018-09-08T07:35:53.199Z,101641.00
2018-09-08T07:38:21.974Z,101631.00
2018-09-08T07:40:51.080Z,101626.00
2018-09-08T07:43:19.867Z,101631.00
2018-09-08T07:45:48.807Z,101628.00
2018-09-08T07:48:17.673Z,101631.00
2018-09-08T07:50:46.556Z,101637.00
2018-09-08T07:53:16.212Z,101638.00
2018-09-08T07:55:44.984Z,101631.00
2018-09-08T07:58:13.779Z,101637.00
2018-09-08T08:00:42.582Z,101637.00
2018-09-08T08:03:11.587Z,101637.00
2018-09-08T08:05:40.379Z,101635.00
2018-09-08T08:08:09.179Z,101631.00
2018-09-08T08:10:37.986Z,101641.00
2018-09-08T08:13:06.813Z,101637.00
2018-09-08T08:15:35.631Z,101635.00
2018-09-08T08:18:04.506Z,101629.00
2018-09-08T08:20:33.379Z,101638.00
2018-09-08T08:23:02.186Z,101635.00
2018-09-08T08:25:31.319Z,101637.00
2018-09-08T08:28:00.102Z,101641.00
2018-09-08T08:30:28.895Z,101636.00
2018-09-08T08:32:57.715Z,101639.00
2018-09-08T08:35:26.543Z,101640.00
2018-09-08T08:37:55.770Z,101631.00
2018-09-08T08:40:24.730Z,101632.00
2018-09-08T08:42:53.545Z,101641.00
2018-09-08T08:45:22.346Z,101643.00
2018-09-08T08:47:51.321Z,101642.00
2018-09-08T08:50:37.499Z,101647.00
2018-09-08T08:53:23.626Z,101650.00
2018-09-08T08:55:52.521Z,101644.00
2018-09-08T08:58:21.253Z,101643.00
2018-09-08T09:00:50.142Z,101638.00
2018-09-08T09:03:18.957Z,101641.00
2018-09-08T09:05:47.758Z,101648.00
2018-09-08T09:08:17.095Z,101656.00
2018-09-08T09:10:45.671Z,101656.00
2018-09-08T09:13:14.546Z,101656.00
2018-09-08T09:15:43.373Z,101657.00
2018-09-08T09:18:27.954Z,101650.00
2018-09-08T09:21:14.131Z,101655.00
2018-09-08T09:25:07.928Z,101651.00
2018-09-08T09:27:42.994Z,101657.00
2018-09-08T09:30:12.092Z,101661.00
2018-09-08T09:32:40.962Z,101655.00
2018-09-08T09:35:12.029Z,101648.00
2018-09-08T09:37:41.125Z,101654.00
2018-09-08T09:40:11.038Z,101658.00
2018-09-08T09:42:39.868Z,101652.00
2018-09-08T09:45:09.899Z,101653.00
2018-09-08T09:47:38.738Z,101651.00
2018-09-08T09:50:10.502Z,101641.00
2018-09-08T09:52:39.696Z,101645.00
2018-09-08T09:55:08.793Z,101644.00
2018-09-08T09:57:37.611Z,101639.00
2018-09-08T10:00:09.797Z,101642.00
2018-09-08T10:02:45.682Z,101635.00
2018-09-08T10:05:17.870Z,101630.00
2018-09-08T10:07:47.170Z,101627.00
2018-09-08T10:10:17.493Z,101621.00
2018-09-08T10:12:46.303Z,101620.00
2018-09-08T10:15:15.131Z,101624.00
2018-09-08T10:17:44.681Z,101625.00
2018-09-08T10:20:16.032Z,101630.00
2018-09-08T10:22:44.819Z,101619.00
2018-09-08T10:25:14.929Z,101626.00
2018-09-08T10:27:44.902Z,101622.00
2018-09-08T10:30:14.382Z,101633.00
2018-09-08T10:32:43.948Z,101633.00
2018-09-08T10:35:13.195Z,101625.00
2018-09-08T10:37:42.003Z,101643.00
2018-09-08T10:40:12.390Z,101635.00
2018-09-08T10:42:41.472Z,101638.00
2018-09-08T10:45:10.315Z,101627.00
2018-09-08T10:47:39.357Z,101630.00
2018-09-08T10:50:10.719Z,101641.00
2018-09-08T10:52:43.875Z,101636.00
2018-09-08T10:55:12.714Z,101642.00
2018-09-08T10:57:41.550Z,101634.00
2018-09-08T11:00:11.293Z,101642.00
2018-09-08T11:02:40.354Z,101631.00
2018-09-08T11:05:08.978Z,101628.00
2018-09-08T11:07:37.866Z,101639.00
2018-09-08T11:10:09.000Z,101648.00
2018-09-08T11:12:37.806Z,101638.00
2018-09-08T11:15:09.774Z,101644.00
2018-09-08T11:17:38.591Z,101633.00
2018-09-08T11:20:08.782Z,101642.00
2018-09-08T11:22:37.600Z,101636.00
2018-09-08T11:25:07.551Z,101641.00
2018-09-08T11:27:36.353Z,101652.00
2018-09-08T11:30:05.546Z,101635.00
2018-09-08T11:32:34.642Z,101645.00
2018-09-08T11:35:03.491Z,101659.00
2018-09-08T11:37:32.358Z,101655.00
2018-09-08T11:40:01.156Z,101668.00
2018-09-08T11:42:30.295Z,101650.00
2018-09-08T11:44:59.160Z,101645.00
2018-09-08T11:47:27.984Z,101656.00
2018-09-08T11:49:56.803Z,101639.00
2018-09-08T11:52:25.635Z,101648.00
2018-09-08T11:54:54.843Z,101650.00
2018-09-08T11:57:23.664Z,101645.00
2018-09-08T11:59:52.454Z,101637.00
2018-09-08T12:02:21.286Z,101639.00
2018-09-08T12:04:50.159Z,101646.00
2018-09-08T12:07:18.950Z,101640.00
2018-09-08T12:09:47.734Z,101636.00
2018-09-08T12:12:16.544Z,101639.00
2018-09-08T12:14:45.323Z,101641.00
2018-09-08T12:17:14.483Z,101652.00
2018-09-08T12:19:43.287Z,101622.00
2018-09-08T12:22:12.207Z,101641.00
2018-09-08T12:24:41.072Z,101638.00
2018-09-08T12:27:09.935Z,101654.00
2018-09-08T12:29:38.742Z,101641.00
2018-09-08T12:32:07.591Z,101636.00
2018-09-08T12:34:36.387Z,101635.00
2018-09-08T12:37:05.387Z,101636.00
2018-09-08T12:39:34.403Z,101635.00
2018-09-08T12:42:03.832Z,101638.00
2018-09-08T12:44:33.097Z,101645.00
2018-09-08T12:47:01.959Z,101637.00
2018-09-08T12:49:30.779Z,101637.00
2018-09-08T12:51:59.602Z,101635.00
2018-09-08T12:54:28.465Z,101644.00
2018-09-08T12:56:57.249Z,101632.00
2018-09-08T12:59:26.106Z,101638.00
2018-09-08T13:01:55.131Z,101638.00
2018-09-08T13:04:23.930Z,101635.00
2018-09-08T13:06:52.723Z,101631.00
2018-09-08T13:09:21.544Z,101633.00
2018-09-08T13:11:50.327Z,101634.00
2018-09-08T13:14:19.137Z,101627.00
2018-09-08T13:16:47.944Z,101632.00
2018-09-08T13:19:16.741Z,101632.00
2018-09-08T13:21:45.609Z,101629.00
2018-09-08T13:24:14.658Z,101622.00
2018-09-08T13:26:43.635Z,101628.00
2018-09-08T13:29:12.476Z,101636.00
2018-09-08T13:31:41.612Z,101645.00
2018-09-08T13:34:10.481Z,101634.00
2018-09-08T13:36:39.386Z,101628.00
2018-09-08T13:39:08.927Z,101626.00
2018-09-08T13:41:37.730Z,101627.00
2018-09-08T13:44:06.514Z,101623.00
2018-09-08T13:46:35.906Z,101623.00
2018-09-08T13:49:04.702Z,101614.00
2018-09-08T13:51:33.568Z,101620.00
2018-09-08T13:54:02.451Z,101626.00
2018-09-08T13:56:31.275Z,101620.00
2018-09-08T13:59:00.111Z,101625.00
2018-09-08T14:01:28.927Z,101630.00
2018-09-08T14:03:57.723Z,101626.00
2018-09-08T14:06:26.543Z,101626.00
2018-09-08T14:08:55.458Z,101621.00
2018-09-08T14:11:24.247Z,101621.00
2018-09-08T14:13:53.084Z,101616.00
2018-09-08T14:16:21.903Z,101608.00
2018-09-08T14:18:50.722Z,101604.00
2018-09-08T14:21:19.563Z,101605.00
2018-09-08T14:23:48.373Z,101616.00
2018-09-08T14:26:17.164Z,101608.00
2018-09-08T14:28:45.966Z,101615.00
2018-09-08T14:31:14.895Z,101603.00
2018-09-08T14:33:43.719Z,101614.00
2018-09-08T14:36:12.573Z,101619.00
2018-09-08T14:38:41.391Z,101607.00
2018-09-08T14:41:10.212Z,101598.00
2018-09-08T14:43:39.060Z,101605.00
2018-09-08T14:46:07.943Z,101600.00
2018-09-08T14:48:37.122Z,101608.00
2018-09-08T14:51:05.995Z,101603.00
2018-09-08T14:53:35.128Z,101600.00
2018-09-08T14:56:03.947Z,101600.00
2018-09-08T14:58:32.738Z,101598.00
2018-09-08T15:01:01.566Z,101600.00
2018-09-08T15:03:30.396Z,101596.00
2018-09-08T15:05:59.221Z,101595.00
2018-09-08T15:08:28.079Z,101609.00
2018-09-08T15:10:56.927Z,101600.00
2018-09-08T15:13:25.742Z,101605.00
2018-09-08T15:15:54.855Z,101608.00
2018-09-08T15:18:23.681Z,101606.00
2018-09-08T15:20:52.479Z,101619.00
2018-09-08T15:23:21.338Z,101612.00
2018-09-08T15:25:50.156Z,101606.00
2018-09-08T15:28:18.974Z,101606.00
2018-09-08T15:30:47.812Z,101614.00
2018-09-08T15:33:16.656Z,101617.00
2018-09-08T15:35:45.477Z,101600.00
2018-09-08T15:38:14.414Z,101601.00
2018-09-08T15:40:43.262Z,101602.00
2018-09-08T15:43:12.130Z,101607.00
2018-09-08T15:45:40.962Z,101614.00
2018-09-08T15:48:09.762Z,101614.00
2018-09-08T15:50:38.967Z,101613.00
2018-09-08T15:53:07.796Z,101603.00
2018-09-08T15:55:36.621Z,101604.00
2018-09-08T15:58:05.463Z,101604.00
2018-09-08T16:00:34.432Z,101609.00
2018-09-08T16:03:03.258Z,101606.00
2018-09-08T16:05:32.055Z,101613.00
2018-09-08T16:08:04.102Z,101606.00
2018-09-08T16:10:35.441Z,101613.00
2018-09-08T16:13:04.330Z,101608.00
2018-09-08T16:15:33.151Z,101600.00
2018-09-08T16:18:02.103Z,101603.00
2018-09-08T16:20:30.943Z,101599.00
2018-09-08T16:22:59.941Z,101595.00
2018-09-08T16:25:28.761Z,101591.00
2018-09-08T16:27:57.559Z,101590.00
2018-09-08T16:30:26.485Z,101592.00
2018-09-08T16:32:55.314Z,101586.00
2018-09-08T16:35:24.114Z,101585.00
2018-09-08T16:37:52.952Z,101589.00
2018-09-08T16:40:21.755Z,101593.00
2018-09-08T16:42:50.569Z,101602.00
2018-09-08T16:45:19.479Z,101601.00
2018-09-08T16:47:48.283Z,101601.00
2018-09-08T16:50:17.107Z,101600.00
2018-09-08T16:52:46.308Z,101598.00
2018-09-08T16:55:15.114Z,101585.00
2018-09-08T16:57:43.918Z,101598.00
2018-09-08T17:00:12.867Z,101583.00
2018-09-08T17:02:41.645Z,101597.00
2018-09-08T17:05:10.466Z,101598.00
2018-09-08T17:07:39.647Z,101600.00
2018-09-08T17:10:08.969Z,101599.00
2018-09-08T17:12:37.771Z,101605.00
2018-09-08T17:15:08.695Z,101616.00
2018-09-08T17:17:37.479Z,101607.00
2018-09-08T17:20:07.390Z,101614.00
2018-09-08T17:22:36.202Z,101614.00
2018-09-08T17:25:05.059Z,101618.00
2018-09-08T17:27:33.833Z,101612.00
2018-09-08T17:30:02.791Z,101607.00
2018-09-08T17:32:31.600Z,101604.00
2018-09-08T17:35:00.391Z,101605.00
2018-09-08T17:37:29.250Z,101613.00
2018-09-08T17:39:58.021Z,101620.00
2018-09-08T17:42:26.803Z,101622.00
2018-09-08T17:44:55.659Z,101628.00
2018-09-08T17:47:24.491Z,101638.00
2018-09-08T17:49:53.225Z,101638.00
2018-09-08T17:52:22.336Z,101640.00
2018-09-08T17:54:51.451Z,101653.00
2018-09-08T17:57:20.446Z,101647.00
2018-09-08T17:59:49.255Z,101652.00
2018-09-08T18:02:18.110Z,101646.00
2018-09-08T18:04:46.889Z,101652.00
2018-09-08T18:07:17.326Z,101663.00
2018-09-08T18:09:46.537Z,101662.00
2018-09-08T18:12:15.360Z,101660.00
2018-09-08T18:14:44.515Z,101668.00
2018-09-08T18:17:13.531Z,101637.00
2018-09-08T18:19:42.330Z,101668.00
2018-09-08T18:22:11.142Z,101669.00
2018-09-08T18:24:40.029Z,101665.00
2018-09-08T18:27:08.933Z,101664.00
2018-09-08T18:29:37.735Z,101675.00
2018-09-08T18:32:06.612Z,101678.00
2018-09-08T18:34:35.446Z,101682.00
2018-09-08T18:37:04.435Z,101678.00
2018-09-08T18:39:33.254Z,101690.00
2018-09-08T18:42:02.311Z,101680.00
2018-09-08T18:44:31.167Z,101683.00
2018-09-08T18:46:59.986Z,101667.00
2018-09-08T18:49:28.819Z,101690.00
2018-09-08T18:51:57.669Z,101692.00
2018-09-08T18:54:26.487Z,101684.00
2018-09-08T18:56:55.750Z,101688.00
2018-09-08T18:59:24.850Z,101683.00
2018-09-08T19:01:53.719Z,101680.00
2018-09-08T19:04:22.540Z,101689.00
2018-09-08T19:06:51.390Z,101685.00
2018-09-08T19:09:20.230Z,101691.00
2018-09-08T19:11:49.112Z,101699.00
2018-09-08T19:14:23.303Z,101701.00
2018-09-08T19:16:52.087Z,101697.00
2018-09-08T19:19:20.876Z,101696.00
2018-09-08T19:21:49.812Z,101687.00
2018-09-08T19:24:24.175Z,101689.00
2018-09-08T19:26:53.029Z,101702.00
2018-09-08T19:29:27.266Z,101687.00
2018-09-08T19:31:57.062Z,101697.00
2018-09-08T19:34:25.837Z,101698.00
2018-09-08T19:36:54.654Z,101699.00
2018-09-08T19:39:23.706Z,101703.00
2018-09-08T19:41:52.605Z,101719.00
2018-09-08T19:44:21.394Z,101713.00
2018-09-08T19:46:55.730Z,101715.00
2018-09-08T19:49:24.546Z,101714.00
2018-09-08T19:51:53.334Z,101712.00
2018-09-08T19:54:22.201Z,101703.00
2018-09-08T19:56:56.344Z,101721.00
2018-09-08T19:59:25.809Z,101719.00
2018-09-08T20:01:54.695Z,101710.00
2018-09-08T20:04:23.475Z,101719.00
2018-09-08T20:06:52.286Z,101724.00
2018-09-08T20:09:21.546Z,101727.00
2018-09-08T20:11:50.566Z,101724.00
2018-09-08T20:14:19.366Z,101726.00
2018-09-08T20:16:48.203Z,101726.00
2018-09-08T20:19:17.039Z,101724.00
2018-09-08T20:21:46.019Z,101734.00
2018-09-08T20:24:14.820Z,101721.00
2018-09-08T20:26:43.759Z,101715.00
2018-09-08T20:29:12.456Z,101725.00
2018-09-08T20:31:41.253Z,101732.00
2018-09-08T20:34:10.061Z,101730.00
2018-09-08T20:36:38.878Z,101725.00
2018-09-08T20:39:08.598Z,101733.00
2018-09-08T20:41:37.413Z,101722.00
2018-09-08T20:44:06.358Z,101722.00
2018-09-08T20:46:35.199Z,101722.00
2018-09-08T20:49:04.074Z,101712.00
2018-09-08T20:51:32.885Z,101721.00
2018-09-08T20:54:01.755Z,101709.00
2018-09-08T20:56:30.601Z,101711.00
2018-09-08T20:58:59.437Z,101720.00
2018-09-08T21:01:28.891Z,101717.00
2018-09-08T21:03:57.694Z,101716.00
2018-09-08T21:06:26.627Z,101711.00
2018-09-08T21:08:55.411Z,101707.00
2018-09-08T21:11:24.228Z,101716.00
2018-09-08T21:13:53.102Z,101713.00
2018-09-08T21:16:21.902Z,101717.00
2018-09-08T21:18:50.702Z,101715.00
2018-09-08T21:21:19.602Z,101710.00
2018-09-08T21:23:48.397Z,101711.00
2018-09-08T21:26:17.207Z,101712.00
2018-09-08T21:28:46.279Z,101712.00
2018-09-08T21:31:15.073Z,101715.00
2018-09-08T21:33:43.866Z,101707.00
2018-09-08T21:36:12.668Z,101702.00
2018-09-08T21:38:41.469Z,101713.00
2018-09-08T21:41:10.259Z,101709.00
2018-09-08T21:43:39.106Z,101714.00
2018-09-08T21:46:07.906Z,101714.00
2018-09-08T21:48:36.847Z,101722.00
2018-09-08T21:51:05.957Z,101720.00
2018-09-08T21:53:34.767Z,101722.00
2018-09-08T21:56:03.590Z,101719.00
2018-09-08T21:58:32.401Z,101712.00
2018-09-08T22:01:06.458Z,101704.00
2018-09-08T22:03:38.855Z,101709.00
2018-09-08T22:06:07.671Z,101701.00
2018-09-08T22:08:38.153Z,101697.00
2018-09-08T22:11:08.273Z,101692.00
2018-09-08T22:13:37.071Z,101693.00
2018-09-08T22:16:05.935Z,101693.00
2018-09-08T22:18:34.822Z,101689.00
2018-09-08T22:21:03.746Z,101694.00
2018-09-08T22:23:32.560Z,101693.00
2018-09-08T22:26:01.419Z,101703.00
2018-09-08T22:28:30.224Z,101690.00
2018-09-08T22:30:59.570Z,101688.00
2018-09-08T22:33:28.395Z,101693.00
2018-09-08T22:35:57.244Z,101696.00
2018-09-08T22:38:26.058Z,101700.00
2018-09-08T22:40:54.862Z,101707.00
2018-09-08T22:43:23.714Z,101702.00
2018-09-08T22:45:52.531Z,101704.00
2018-09-08T22:48:21.331Z,101700.00
2018-09-08T22:50:50.127Z,101703.00
2018-09-08T22:53:19.063Z,101703.00
2018-09-08T22:55:47.889Z,101708.00
2018-09-08T22:58:16.695Z,101700.00
2018-09-08T23:00:45.531Z,101686.00
2018-09-08T23:03:14.332Z,101712.00
2018-09-08T23:05:43.632Z,101705.00
2018-09-08T23:08:12.437Z,101712.00
2018-09-08T23:10:55.836Z,101705.00
2018-09-08T23:13:24.767Z,101713.00
2018-09-08T23:15:53.583Z,101717.00
2018-09-08T23:18:22.390Z,101717.00
2018-09-08T23:20:51.279Z,101714.00
2018-09-08T23:23:20.090Z,101702.00
2018-09-08T23:25:48.963Z,101700.00
2018-09-08T23:28:17.903Z,101703.00
2018-09-08T23:30:49.755Z,101691.00
2018-09-08T23:33:18.718Z,101692.00
2018-09-08T23:35:47.549Z,101693.00
2018-09-08T23:38:16.423Z,101692.00
2018-09-08T23:40:45.265Z,101692.00
2018-09-08T23:43:14.063Z,101692.00
2018-09-08T23:45:42.890Z,101692.00
2018-09-08T23:48:11.705Z,101700.00
2018-09-08T23:50:40.522Z,101712.00
2018-09-08T23:53:09.322Z,101716.00
2018-09-08T23:55:38.262Z,101719.00
2018-09-08T23:58:07.074Z,101718.00
